createdAt,value
2023-04-01T00:02:56.429Z,8.88
2023-04-01T00:06:55.779Z,8.84
2023-04-01T00:10:54.487Z,8.79
2023-04-01T00:14:52.451Z,8.75
2023-04-01T00:18:50.367Z,8.69
2023-04-01T00:22:48.352Z,8.62
2023-04-01T00:26:46.388Z,8.52
2023-04-01T00:30:44.321Z,8.42
2023-04-01T00:34:42.349Z,8.34
2023-04-01T00:38:40.337Z,8.22
2023-04-01T00:42:38.329Z,8.13
2023-04-01T00:46:36.362Z,8.06
2023-04-01T00:50:34.403Z,7.98
2023-04-01T00:54:35.430Z,7.93
2023-04-01T00:58:37.392Z,7.90
2023-04-01T01:02:35.363Z,7.88
2023-04-01T01:07:02.314Z,7.88
2023-04-01T01:11:05.323Z,7.89
2023-04-01T01:15:10.360Z,7.89
2023-04-01T01:19:14.232Z,7.91
2023-04-01T01:23:16.359Z,7.91
2023-04-01T01:27:23.248Z,7.91
2023-04-01T01:31:39.249Z,7.91
2023-04-01T01:35:47.259Z,7.90
2023-04-01T01:39:48.333Z,7.87
2023-04-01T01:43:51.222Z,7.86
2023-04-01T01:47:51.268Z,7.85
2023-04-01T01:51:50.231Z,7.84
2023-04-01T01:55:54.241Z,7.85
2023-04-01T01:59:55.212Z,7.87
2023-04-01T02:03:55.348Z,7.88
2023-04-01T02:07:55.255Z,7.89
2023-04-01T02:12:03.191Z,7.92
2023-04-01T02:16:07.228Z,7.94
2023-04-01T02:20:13.286Z,7.97
2023-04-01T02:24:14.173Z,8.01
2023-04-01T02:28:14.172Z,8.05
2023-04-01T02:32:14.175Z,8.08
2023-04-01T02:36:13.354Z,8.11
2023-04-01T02:40:16.278Z,8.11
2023-04-01T02:44:14.148Z,8.09
2023-04-01T02:48:12.132Z,8.07
2023-04-01T02:52:10.176Z,8.07
2023-04-01T02:56:08.108Z,8.07
2023-04-01T03:00:06.187Z,8.08
2023-04-01T03:04:04.069Z,8.08
2023-04-01T03:08:02.228Z,8.07
2023-04-01T03:12:00.149Z,8.06
2023-04-01T03:15:59.209Z,8.04
2023-04-01T03:19:57.117Z,8.02
2023-04-01T03:23:55.270Z,8.02
2023-04-01T03:27:55.438Z,8.00
2023-04-01T03:31:53.162Z,7.99
2023-04-01T03:35:51.136Z,7.97
2023-04-01T03:39:49.117Z,7.95
2023-04-01T03:43:47.094Z,7.92
2023-04-01T03:47:45.276Z,7.89
2023-04-01T03:51:43.157Z,7.85
2023-04-01T03:55:41.131Z,7.83
2023-04-01T03:59:40.142Z,7.80
2023-04-01T04:03:38.160Z,7.74
2023-04-01T04:07:36.136Z,7.73
2023-04-01T04:11:35.105Z,7.73
2023-04-01T04:15:33.173Z,7.75
2023-04-01T04:19:32.189Z,7.78
2023-04-01T04:23:30.039Z,7.82
2023-04-01T04:27:28.048Z,7.84
2023-04-01T04:31:35.128Z,7.87
2023-04-01T04:35:33.193Z,7.90
2023-04-01T04:39:30.969Z,7.94
2023-04-01T04:43:31.045Z,7.99
2023-04-01T04:47:29.099Z,8.03
2023-04-01T04:51:32.023Z,8.07
2023-04-01T04:55:29.976Z,8.12
2023-04-01T04:59:42.985Z,8.21
2023-04-01T05:03:48.083Z,8.30
2023-04-01T05:07:45.956Z,8.40
2023-04-01T05:11:43.996Z,8.49
2023-04-01T05:15:42.998Z,8.57
2023-04-01T05:19:40.982Z,8.66
2023-04-01T05:23:39.084Z,8.74
2023-04-01T05:27:36.921Z,8.83
2023-04-01T05:31:34.952Z,8.92
2023-04-01T05:35:33.319Z,9.01
2023-04-01T05:39:30.925Z,9.09
2023-04-01T05:43:28.911Z,9.20
2023-04-01T05:47:31.963Z,9.28
2023-04-01T05:51:30.884Z,9.38
2023-04-01T05:55:29.904Z,9.44
2023-04-01T05:59:28.928Z,9.52
2023-04-01T06:03:27.181Z,9.66
2023-04-01T06:07:32.879Z,9.77
2023-04-01T06:11:55.891Z,9.85
2023-04-01T06:16:05.891Z,9.90
2023-04-01T06:20:28.055Z,9.97
2023-04-01T06:24:29.845Z,10.05
2023-04-01T06:28:40.897Z,10.05
2023-04-01T06:32:56.060Z,10.02
2023-04-01T06:37:02.908Z,9.93
2023-04-01T06:41:12.825Z,9.95
2023-04-01T06:45:19.858Z,10.05
2023-04-01T06:50:10.808Z,10.27
2023-04-01T06:54:38.857Z,10.52
2023-04-01T06:59:07.859Z,10.81
2023-04-01T07:03:21.822Z,11.03
2023-04-01T07:07:43.056Z,11.23
2023-04-01T07:11:44.834Z,11.41
2023-04-01T07:16:20.818Z,11.59
2023-04-01T07:20:21.832Z,11.61
2023-04-01T07:24:29.785Z,11.78
2023-04-01T07:28:31.782Z,11.98
2023-04-01T07:33:03.799Z,12.06
2023-04-01T07:37:08.775Z,12.38
2023-04-01T07:41:38.914Z,12.83
2023-04-01T07:45:50.855Z,13.08
2023-04-01T07:50:14.773Z,13.24
2023-04-01T07:54:34.875Z,13.57
2023-04-01T07:58:51.920Z,13.91
2023-04-01T08:03:33.039Z,14.31
2023-04-01T08:07:45.699Z,14.60
2023-04-01T08:12:08.726Z,14.66
2023-04-01T08:17:05.716Z,14.66
2023-04-01T08:21:14.751Z,14.87
2023-04-01T08:25:16.827Z,15.02
2023-04-01T08:29:24.787Z,14.99
2023-04-01T08:33:37.770Z,15.07
2023-04-01T08:37:49.879Z,14.93
2023-04-01T08:42:08.695Z,14.59
2023-04-01T08:46:36.788Z,14.77
2023-04-01T08:51:16.839Z,14.88
2023-04-01T08:55:37.729Z,15.11
2023-04-01T08:59:59.688Z,15.25
2023-04-01T09:04:43.740Z,15.67
2023-04-01T09:08:45.688Z,16.00
2023-04-01T09:12:53.671Z,15.84
2023-04-01T09:17:13.702Z,15.76
2023-04-01T09:21:25.684Z,15.67
2023-04-01T09:25:53.696Z,15.65
2023-04-01T09:29:58.747Z,15.84
2023-04-01T09:34:22.689Z,16.10
2023-04-01T09:38:44.683Z,16.43
2023-04-01T09:43:11.644Z,16.54
2023-04-01T09:47:37.682Z,16.30
2023-04-01T09:51:41.658Z,16.07
2023-04-01T09:56:17.722Z,15.87
2023-04-01T10:00:33.609Z,15.98
2023-04-01T10:04:40.638Z,16.15
2023-04-01T10:09:00.622Z,16.28
2023-04-01T10:13:26.611Z,16.38
2023-04-01T10:17:40.642Z,16.24
2023-04-01T10:22:12.722Z,16.17
2023-04-01T10:26:38.742Z,16.03
2023-04-01T10:31:30.732Z,16.14
2023-04-01T10:36:05.680Z,16.17
2023-04-01T10:40:12.586Z,16.24
2023-04-01T10:44:46.589Z,16.50
2023-04-01T10:49:11.627Z,16.87
2023-04-01T10:53:16.208Z,17.15
2023-04-01T10:58:21.552Z,17.16
2023-04-01T11:02:39.713Z,16.85
2023-04-01T11:07:15.608Z,16.51
2023-04-01T11:11:45.526Z,16.30
2023-04-01T11:15:55.629Z,16.16
2023-04-01T11:20:17.525Z,16.13
2023-04-01T11:24:50.566Z,16.10
2023-04-01T11:29:25.509Z,16.09
2023-04-01T11:33:38.592Z,16.11
2023-04-01T11:37:52.530Z,16.14
2023-04-01T11:42:55.540Z,16.11
2023-04-01T11:47:41.596Z,16.20
2023-04-01T11:51:58.665Z,16.24
2023-04-01T11:56:07.877Z,16.20
2023-04-01T12:00:33.519Z,16.03
2023-04-01T12:05:09.502Z,15.83
2023-04-01T12:09:20.591Z,15.60
2023-04-01T12:13:30.555Z,15.36
2023-04-01T12:18:04.576Z,14.86
2023-04-01T12:22:20.611Z,14.46
2023-04-01T12:26:42.521Z,14.10
2023-04-01T12:31:06.459Z,13.80
2023-04-01T12:35:15.663Z,13.56
2023-04-01T12:39:26.522Z,13.49
2023-04-01T12:43:39.455Z,13.69
2023-04-01T12:47:45.476Z,14.08
2023-04-01T12:52:03.446Z,14.45
2023-04-01T12:56:01.551Z,14.97
2023-04-01T13:00:26.436Z,15.12
2023-04-01T13:04:52.425Z,15.25
2023-04-01T13:09:36.442Z,16.04
2023-04-01T13:13:49.384Z,16.06
2023-04-01T13:18:01.501Z,15.67
2023-04-01T13:22:20.400Z,15.48
2023-04-01T13:26:36.401Z,15.51
2023-04-01T13:30:49.495Z,15.59
2023-04-01T13:35:20.443Z,15.41
2023-04-01T13:39:38.490Z,15.28
2023-04-01T13:43:42.435Z,15.26
2023-04-01T13:48:07.425Z,15.28
2023-04-01T13:52:19.400Z,15.26
2023-04-01T13:56:41.410Z,15.06
2023-04-01T14:00:58.419Z,14.86
2023-04-01T14:05:05.378Z,14.61
2023-04-01T14:09:50.471Z,14.34
2023-04-01T14:14:25.338Z,14.00
2023-04-01T14:18:33.379Z,13.72
2023-04-01T14:23:08.329Z,13.57
2023-04-01T14:27:06.553Z,13.47
2023-04-01T14:31:25.382Z,13.45
2023-04-01T14:35:35.659Z,13.44
2023-04-01T14:40:03.347Z,13.52
2023-04-01T14:44:38.415Z,13.58
2023-04-01T14:49:06.307Z,13.67
2023-04-01T14:53:13.300Z,13.77
2023-04-01T14:57:39.293Z,13.76
2023-04-01T15:02:01.332Z,13.67
2023-04-01T15:06:14.293Z,13.55
2023-04-01T15:10:32.320Z,13.41
2023-04-01T15:14:46.278Z,13.28
2023-04-01T15:19:05.276Z,13.22
2023-04-01T15:23:25.342Z,13.15
2023-04-01T15:27:38.287Z,13.06
2023-04-01T15:32:09.249Z,13.01
2023-04-01T15:36:32.315Z,12.94
2023-04-01T15:40:43.250Z,12.84
2023-04-01T15:45:00.352Z,12.69
2023-04-01T15:49:32.308Z,12.48
2023-04-01T15:53:47.303Z,12.28
2023-04-01T15:58:02.197Z,12.08
2023-04-01T16:02:12.351Z,11.89
2023-04-01T16:06:33.242Z,11.71
2023-04-01T16:11:06.332Z,11.57
2023-04-01T16:15:49.210Z,11.42
2023-04-01T16:20:05.228Z,11.31
2023-04-01T16:24:11.186Z,11.16
2023-04-01T16:28:31.200Z,10.98
2023-04-01T16:33:01.278Z,10.86
2023-04-01T16:37:37.183Z,10.77
2023-04-01T16:41:41.171Z,10.73
2023-04-01T16:45:55.332Z,10.69
2023-04-01T16:50:15.145Z,10.64
2023-04-01T16:54:19.215Z,10.58
2023-04-01T16:58:17.324Z,10.52
2023-04-01T17:02:18.227Z,10.43
2023-04-01T17:06:36.144Z,10.30
2023-04-01T17:10:53.224Z,10.19
2023-04-01T17:15:25.327Z,10.09
2023-04-01T17:19:35.138Z,10.01
2023-04-01T17:23:43.128Z,9.93
2023-04-01T17:27:59.146Z,9.86
2023-04-01T17:32:08.152Z,9.81
2023-04-01T17:36:24.131Z,9.75
2023-04-01T17:40:35.496Z,9.72
2023-04-01T17:45:02.246Z,9.71
2023-04-01T17:49:27.088Z,9.68
2023-04-01T17:53:51.103Z,9.65
2023-04-01T17:58:02.082Z,9.63
2023-04-01T18:02:22.229Z,9.60
2023-04-01T18:06:30.043Z,9.53
2023-04-01T18:10:44.111Z,9.47
2023-04-01T18:15:07.044Z,9.45
2023-04-01T18:19:29.115Z,9.40
2023-04-01T18:24:02.890Z,9.35
2023-04-01T18:28:15.065Z,9.35
2023-04-01T18:32:49.102Z,9.36
2023-04-01T18:37:07.110Z,9.35
2023-04-01T18:41:18.050Z,9.31
2023-04-01T18:45:30.122Z,9.30
2023-04-01T18:49:59.044Z,9.31
2023-04-01T18:54:46.044Z,9.31
2023-04-01T18:58:59.003Z,9.29
2023-04-01T19:03:04.168Z,9.28
2023-04-01T19:07:11.991Z,9.28
2023-04-01T19:11:12.171Z,9.28
2023-04-01T19:15:18.985Z,9.27
2023-04-01T19:19:19.054Z,9.28
2023-04-01T19:23:58.001Z,9.27
2023-04-01T19:28:08.059Z,9.26
2023-04-01T19:32:11.990Z,9.24
2023-04-01T19:36:33.008Z,9.21
2023-04-01T19:40:52.996Z,9.19
2023-04-01T19:45:33.064Z,9.17
2023-04-01T19:49:58.079Z,9.14
2023-04-01T19:54:17.050Z,9.14
2023-04-01T19:58:27.026Z,9.13
2023-04-01T20:02:25.068Z,9.09
2023-04-01T20:06:26.953Z,9.08
2023-04-01T20:11:14.084Z,9.06
2023-04-01T20:15:18.020Z,9.03
2023-04-01T20:19:20.915Z,9.03
2023-04-01T20:23:33.931Z,9.01
2023-04-01T20:27:38.975Z,9.01
2023-04-01T20:32:04.140Z,9.01
2023-04-01T20:36:26.916Z,8.97
2023-04-01T20:40:50.885Z,8.91
2023-04-01T20:44:55.024Z,8.89
2023-04-01T20:49:07.067Z,8.89
2023-04-01T20:53:19.903Z,8.88
2023-04-01T20:57:35.012Z,8.85
2023-04-01T21:01:45.406Z,8.85
2023-04-01T21:06:00.865Z,8.84
2023-04-01T21:10:11.859Z,8.84
2023-04-01T21:15:00.921Z,8.83
2023-04-01T21:19:22.944Z,8.80
2023-04-01T21:23:49.791Z,8.81
2023-04-01T21:28:02.874Z,8.81
2023-04-01T21:32:09.924Z,8.81
2023-04-01T21:36:17.968Z,8.78
2023-04-01T21:41:05.784Z,8.76
2023-04-01T21:45:32.170Z,8.74
2023-04-01T21:49:50.793Z,8.71
2023-04-01T21:54:09.860Z,8.54
2023-04-01T21:58:46.857Z,8.25
2023-04-01T22:02:56.831Z,8.06
2023-04-01T22:07:04.783Z,7.93
2023-04-01T22:11:14.799Z,7.81
2023-04-01T22:15:42.769Z,7.74
2023-04-01T22:20:16.784Z,7.66
2023-04-01T22:24:32.795Z,7.63
2023-04-01T22:28:42.860Z,7.61
2023-04-01T22:33:00.779Z,7.61
2023-04-01T22:37:36.774Z,7.52
2023-04-01T22:42:03.734Z,7.44
2023-04-01T22:46:24.879Z,7.38
2023-04-01T22:50:39.739Z,7.39
2023-04-01T22:54:49.787Z,7.33
2023-04-01T22:58:53.732Z,7.28
2023-04-01T23:02:54.760Z,7.25
2023-04-01T23:06:56.674Z,7.25
2023-04-01T23:11:07.717Z,7.23
2023-04-01T23:15:09.690Z,7.25
2023-04-01T23:19:13.711Z,7.22
2023-04-01T23:23:23.700Z,7.20
2023-04-01T23:27:30.688Z,7.12
2023-04-01T23:31:48.754Z,7.09
2023-04-01T23:35:46.833Z,7.02
2023-04-01T23:39:51.746Z,6.96
2023-04-01T23:43:54.678Z,6.90
2023-04-01T23:47:54.728Z,6.85
2023-04-01T23:52:03.713Z,6.86
2023-04-01T23:56:01.693Z,6.84
